Airfield :
LOGIN :

Register | Disclaimer

   EN    FR    IT 

 










Legend :    VFR   Marginal VFR   IFR   Intensive IFR   Very Intensive IFR
Visi :
Ceiling :
>= 8 km
>= 3000ft
5 to 8 km
1000 to 3000 ft
1500m to 5 km
500 to 1000 ft
800 to 1500m
200 to 500 ft
< 800m
< 200 ft
Symbols :   Thunderstorms  Fog  Heavy snow  Heavy precipitations  Wind > 20 kt
SIGMETs :     Misc.  Thunderstorms  Icing  Turbulence  Mountain Waves  Volcanic Ashes






- Airport Elevation : 614 ft
- IATA code : CRL


EBCI - Charleroi

CURRENT METAR :
  • 262120Z 20012KT CAVOK 07/05 Q1013 NOSIG

EXPIRED METARs :
  • 262050Z 19014KT CAVOK 07/05 Q1013 NOSIG
  • 262020Z 19013KT CAVOK 06/04 Q1013 NOSIG
  • 261950Z 19011KT CAVOK 07/04 Q1014 NOSIG
  • 261920Z 20011KT 9999 FEW012 07/04 Q1014 TEMPO BKN012
  • 261850Z 20012KT 9999 FEW012 07/05 Q1014 TEMPO BKN012
  • 261820Z 20013KT 9999 SCT012 07/05 Q1014 TEMPO BKN012

TAF TAF EBCI
Valid from the 26 at 18:00 until the 28 at 00:00 UTC


261712Z 2618/2724 20010KT 9999 FEW020
PROB40
TEMPO 2618/2621 BKN012
BECMG 2621/2623 BKN012
TEMPO 2623/2702 19015G25KT RA SCT006 BKN009
TEMPO 2709/2716 BKN018
TEMPO 2716/2722 4500 RA BKN008



MET'MAP, your aeronautical weather chart ! - Copyright ORBIFLY December 2007 - Disclaimer

ORBIFLY MET'MAP TEAM :

Programming & Development : Alexandra Zaïnal
Concept & original design : Baudouin d'Aumeries
Assistance for programming : Marc-Olivier Méhu
Technical & hardware support : Manuel Goepfert

Contact : metmap@orbifly.com




SOURCES & CREDITS :

   NOAA